createdAt,value
2022-12-15T00:01:05.313Z,99459.31
2022-12-15T00:04:26.796Z,99460.47
2022-12-15T00:07:48.042Z,99447.72
2022-12-15T00:11:09.795Z,99461.03
2022-12-15T00:14:30.987Z,99453.66
2022-12-15T00:17:52.162Z,99456.84
2022-12-15T00:21:18.499Z,99454.47
2022-12-15T00:24:40.321Z,99458.44
2022-12-15T00:28:01.519Z,99463.19
2022-12-15T00:31:23.413Z,99455.62
2022-12-15T00:34:44.494Z,99458.75
2022-12-15T00:38:05.674Z,99454.38
2022-12-15T00:41:08.312Z,99443.00
2022-12-15T00:44:15.759Z,99457.19
2022-12-15T00:47:20.001Z,99454.72
2022-12-15T00:50:41.358Z,99448.06
2022-12-15T00:54:03.117Z,99463.62
2022-12-15T00:57:24.506Z,99457.59
2022-12-15T01:00:46.211Z,99460.75
2022-12-15T01:04:07.842Z,99455.94
2022-12-15T01:07:29.282Z,99457.66
2022-12-15T01:10:50.865Z,99467.44
2022-12-15T01:14:12.055Z,99471.03
2022-12-15T01:17:34.427Z,99478.25
2022-12-15T01:20:37.067Z,99485.22
2022-12-15T01:23:41.183Z,99482.31
2022-12-15T01:26:43.867Z,99481.63
2022-12-15T01:29:46.799Z,99478.50
2022-12-15T01:32:49.974Z,99480.53
2022-12-15T01:36:01.241Z,99475.63
2022-12-15T01:39:03.965Z,99477.78
2022-12-15T01:42:12.590Z,99491.28
2022-12-15T01:45:31.416Z,99500.34
2022-12-15T01:48:46.510Z,99504.38
2022-12-15T01:51:53.526Z,99502.16
2022-12-15T01:54:58.332Z,99487.03
2022-12-15T01:58:06.829Z,99500.22
2022-12-15T02:01:10.594Z,99496.84
2022-12-15T02:04:14.929Z,99497.19
2022-12-15T02:07:18.799Z,99499.91
2022-12-15T02:10:24.481Z,99502.16
2022-12-15T02:13:49.679Z,99494.81
2022-12-15T02:17:04.887Z,99496.16
2022-12-15T02:20:33.748Z,99499.66
2022-12-15T02:23:41.995Z,99504.50
2022-12-15T02:27:12.989Z,99496.50
2022-12-15T02:30:22.884Z,99498.31
2022-12-15T02:33:30.154Z,99484.34
2022-12-15T02:36:46.905Z,99487.12
2022-12-15T02:39:49.845Z,99488.94
2022-12-15T02:42:55.950Z,99493.22
2022-12-15T02:46:12.602Z,99495.94
2022-12-15T02:49:23.851Z,99501.00
2022-12-15T02:52:32.983Z,99501.22
2022-12-15T02:55:50.378Z,99501.12
2022-12-15T02:59:18.735Z,99508.09
2022-12-15T03:02:25.330Z,99513.87
2022-12-15T03:05:28.379Z,99504.50
2022-12-15T03:08:31.047Z,99504.84
2022-12-15T03:11:34.663Z,99510.72
2022-12-15T03:14:37.326Z,99500.78
2022-12-15T03:17:40.285Z,99498.19
2022-12-15T03:20:43.053Z,99496.59
2022-12-15T03:23:46.071Z,99503.47
2022-12-15T03:26:50.287Z,99503.47
2022-12-15T03:29:53.212Z,99517.91
2022-12-15T03:32:55.757Z,99520.63
2022-12-15T03:35:58.665Z,99519.94
2022-12-15T03:39:01.370Z,99509.69
2022-12-15T03:42:04.523Z,99520.50
2022-12-15T03:45:07.516Z,99532.56
2022-12-15T03:48:10.495Z,99537.53
2022-12-15T03:51:13.011Z,99540.78
2022-12-15T03:54:15.889Z,99533.91
2022-12-15T03:57:18.657Z,99529.88
2022-12-15T04:00:22.612Z,99524.81
2022-12-15T04:03:25.879Z,99527.28
2022-12-15T04:06:29.733Z,99527.50
2022-12-15T04:09:32.653Z,99528.06
2022-12-15T04:12:35.183Z,99537.97
2022-12-15T04:15:39.960Z,99541.81
2022-12-15T04:18:42.822Z,99551.06
2022-12-15T04:21:45.684Z,99569.63
2022-12-15T04:25:07.037Z,99591.44
2022-12-15T04:28:29.752Z,99596.81
2022-12-15T04:31:52.347Z,99602.78
2022-12-15T04:35:13.772Z,99591.66
2022-12-15T04:38:35.075Z,99602.69
2022-12-15T04:41:56.972Z,99604.13
2022-12-15T04:45:21.656Z,99608.31
2022-12-15T04:48:43.279Z,99612.41
2022-12-15T04:52:04.531Z,99619.25
2022-12-15T04:55:26.372Z,99624.31
2022-12-15T04:58:47.576Z,99643.16
2022-12-15T05:02:09.551Z,99640.22
2022-12-15T05:05:31.037Z,99643.28
2022-12-15T05:08:52.571Z,99631.34
2022-12-15T05:12:13.738Z,99638.53
2022-12-15T05:15:35.522Z,99644.84
2022-12-15T05:18:57.127Z,99649.72
2022-12-15T05:22:18.416Z,99638.44
2022-12-15T05:25:39.488Z,99645.88
2022-12-15T05:29:01.025Z,99645.88
2022-12-15T05:32:03.712Z,99646.91
2022-12-15T05:35:06.843Z,99659.66
2022-12-15T05:38:09.449Z,99659.31
2022-12-15T05:41:12.420Z,99667.19
2022-12-15T05:44:15.151Z,99684.78
2022-12-15T05:47:18.180Z,99670.81
2022-12-15T05:50:22.192Z,99646.22
2022-12-15T05:53:25.018Z,99672.97
2022-12-15T05:56:28.730Z,99675.19
2022-12-15T05:59:31.976Z,99679.50
2022-12-15T06:02:34.914Z,99693.59
2022-12-15T06:05:38.521Z,99683.66
2022-12-15T06:08:43.155Z,99690.44
2022-12-15T06:11:46.684Z,99696.72
2022-12-15T06:14:49.891Z,99706.00
2022-12-15T06:17:55.835Z,99709.84
2022-12-15T06:21:05.458Z,99716.28
2022-12-15T06:24:08.538Z,99707.12
2022-12-15T06:27:11.202Z,99715.25
2022-12-15T06:30:16.189Z,99712.37
2022-12-15T06:33:19.834Z,99714.34
2022-12-15T06:36:26.614Z,99717.41
2022-12-15T06:39:30.005Z,99720.13
2022-12-15T06:42:38.755Z,99718.63
2022-12-15T06:45:51.162Z,99728.81
2022-12-15T06:49:03.563Z,99719.56
2022-12-15T06:52:09.645Z,99755.53
2022-12-15T06:55:14.818Z,99757.34
2022-12-15T06:58:25.297Z,99760.09
2022-12-15T07:01:33.913Z,99771.75
2022-12-15T07:04:47.585Z,99790.50
2022-12-15T07:08:02.207Z,99780.28
2022-12-15T07:11:15.013Z,99805.78
2022-12-15T07:17:46.115Z,99810.09
2022-12-15T07:21:27.933Z,99821.13
2022-12-15T07:24:37.576Z,99810.97
2022-12-15T07:27:49.900Z,99816.63
2022-12-15T07:30:56.324Z,99812.56
2022-12-15T07:34:12.471Z,99802.59
2022-12-15T07:37:43.322Z,99814.25
2022-12-15T07:44:38.296Z,99821.91
2022-12-15T07:47:52.205Z,99831.09
2022-12-15T07:51:21.578Z,99838.53
2022-12-15T07:54:40.502Z,99853.19
2022-12-15T07:57:47.127Z,99862.78
2022-12-15T08:01:03.657Z,99858.50
2022-12-15T08:04:10.657Z,99865.19
2022-12-15T08:07:15.343Z,99856.47
2022-12-15T08:10:30.958Z,99869.91
2022-12-15T08:14:13.264Z,99869.03
2022-12-15T08:17:23.139Z,99879.06
2022-12-15T08:20:37.538Z,99885.97
2022-12-15T08:23:54.959Z,99887.66
2022-12-15T08:30:39.423Z,99887.09
2022-12-15T08:33:44.070Z,99883.09
2022-12-15T08:37:13.415Z,99882.16
2022-12-15T08:40:17.732Z,99880.25
2022-12-15T08:43:32.408Z,99885.94
2022-12-15T08:46:43.331Z,99889.81
2022-12-15T08:49:50.910Z,99891.28
2022-12-15T08:53:28.975Z,99895.59
2022-12-15T08:56:35.842Z,99910.78
2022-12-15T08:59:47.434Z,99917.81
2022-12-15T09:02:54.833Z,99923.44
2022-12-15T09:06:07.339Z,99927.44
2022-12-15T09:39:22.970Z,99924.41
2022-12-15T09:42:45.033Z,99907.75
2022-12-15T11:41:44.885Z,99930.44
2022-12-15T11:45:21.908Z,99926.97
2022-12-15T11:48:30.602Z,99918.47
2022-12-15T11:51:51.859Z,99920.94
2022-12-15T11:54:59.920Z,99922.56
2022-12-15T11:58:20.385Z,99915.94
2022-12-15T12:05:13.979Z,99900.59
2022-12-15T12:08:54.842Z,99881.69
2022-12-15T12:12:12.109Z,99878.72
2022-12-15T12:15:33.555Z,99892.91
2022-12-15T12:18:50.492Z,99883.09
2022-12-15T12:22:21.653Z,99883.12
2022-12-15T12:25:25.921Z,99872.94
2022-12-15T12:28:36.283Z,99878.69
2022-12-15T12:31:59.075Z,99873.88
2022-12-15T12:35:32.766Z,99878.63
2022-12-15T12:38:39.393Z,99880.81
2022-12-15T12:41:51.626Z,99854.75
2022-12-15T12:44:54.644Z,99849.00
2022-12-15T12:48:02.927Z,99847.34
2022-12-15T12:51:29.243Z,99862.56
2022-12-15T12:54:37.868Z,99883.09
2022-12-15T12:57:42.411Z,99898.50
2022-12-15T13:01:06.420Z,99908.53
2022-12-15T13:04:34.039Z,99914.19
2022-12-15T13:07:40.849Z,99918.38
2022-12-15T13:10:47.395Z,99923.25
2022-12-15T13:13:53.164Z,99917.16
2022-12-15T13:17:36.667Z,99919.19
2022-12-15T13:20:41.625Z,99919.19
2022-12-15T13:23:46.698Z,99904.91
2022-12-15T13:26:53.386Z,99916.50
2022-12-15T13:30:02.478Z,99910.34
2022-12-15T13:33:19.105Z,99907.47
2022-12-15T13:36:37.183Z,99912.06
2022-12-15T13:39:55.462Z,99912.50
2022-12-15T13:43:05.210Z,99915.34
2022-12-15T13:46:18.049Z,99910.44
2022-12-15T13:49:33.365Z,99909.44
2022-12-15T13:53:17.335Z,99908.19
2022-12-15T13:56:10.708Z,99908.31
2022-12-15T13:59:33.497Z,99922.03
2022-12-15T14:02:37.079Z,99925.41
2022-12-15T14:05:43.065Z,99916.34
2022-12-15T14:08:47.804Z,99912.63
2022-12-15T14:11:54.556Z,99920.41
2022-12-15T14:14:57.324Z,99922.28
2022-12-15T14:18:02.502Z,99926.34
2022-12-15T14:21:07.642Z,99931.13
2022-12-15T14:24:43.656Z,99922.00
2022-12-15T14:27:50.746Z,99931.13
2022-12-15T14:30:57.074Z,99943.72
2022-12-15T14:34:06.482Z,99933.56
2022-12-15T14:37:17.440Z,99939.41
2022-12-15T14:40:26.540Z,99938.75
2022-12-15T14:43:39.738Z,99946.56
2022-12-15T14:46:47.940Z,99938.84
2022-12-15T14:49:51.751Z,99940.25
2022-12-15T14:52:59.537Z,99943.34
2022-12-15T14:56:20.422Z,99944.41
2022-12-15T14:59:33.081Z,99967.25
2022-12-15T15:02:36.198Z,99959.59
2022-12-15T15:03:09.494Z,99905.50
2022-12-15T15:05:41.352Z,99942.00
2022-12-15T15:08:52.741Z,99933.81
2022-12-15T15:12:12.748Z,99954.34
2022-12-15T15:15:21.304Z,99957.72
2022-12-15T15:18:27.873Z,99965.88
2022-12-15T15:21:36.991Z,99944.88
2022-12-15T15:24:39.605Z,99946.94
2022-12-15T15:27:42.520Z,99962.97
2022-12-15T15:30:48.826Z,99952.84
2022-12-15T15:33:52.878Z,99960.69
2022-12-15T15:36:55.607Z,99967.72
2022-12-15T15:39:58.672Z,99971.94
2022-12-15T15:43:01.275Z,99959.16
2022-12-15T15:46:11.605Z,99960.50
2022-12-15T15:49:17.915Z,99944.47
2022-12-15T15:52:22.427Z,99945.38
2022-12-15T15:55:32.285Z,99943.78
2022-12-15T15:58:36.761Z,99927.56
2022-12-15T16:01:39.816Z,99940.63
2022-12-15T16:04:44.040Z,99941.69
2022-12-15T16:07:47.329Z,99953.88
2022-12-15T16:10:52.996Z,99943.13
2022-12-15T16:13:56.768Z,99940.97
2022-12-15T16:17:00.091Z,99952.97
2022-12-15T16:20:04.750Z,99950.94
2022-12-15T16:23:15.039Z,99959.41
2022-12-15T16:26:29.876Z,99946.63
2022-12-15T16:29:32.723Z,99940.63
2022-12-15T16:32:35.386Z,99948.97
2022-12-15T16:35:39.633Z,99953.84
2022-12-15T16:38:43.532Z,99957.53
2022-12-15T16:41:46.586Z,99954.28
2022-12-15T16:44:49.232Z,99947.19
2022-12-15T16:47:53.537Z,99948.47
2022-12-15T16:50:59.267Z,99955.00
2022-12-15T16:54:02.286Z,99944.81
2022-12-15T16:57:06.487Z,99950.03
2022-12-15T17:00:21.362Z,99959.62
2022-12-15T17:03:28.022Z,99961.66
2022-12-15T17:06:30.980Z,99972.66
2022-12-15T17:09:36.832Z,99972.75
2022-12-15T17:12:39.843Z,99970.37
2022-12-15T17:15:42.484Z,99984.38
2022-12-15T17:18:45.536Z,99992.87
2022-12-15T17:21:51.829Z,99988.22
2022-12-15T17:24:55.395Z,99963.84
2022-12-15T17:27:58.200Z,99957.81
2022-12-15T17:31:01.173Z,99960.66
2022-12-15T17:34:26.270Z,99970.03
2022-12-15T17:37:34.913Z,99953.31
2022-12-15T17:40:38.236Z,99954.78
2022-12-15T17:43:41.795Z,99946.75
2022-12-15T17:46:44.695Z,99947.63
2022-12-15T17:49:48.236Z,99945.13
2022-12-15T17:52:50.936Z,99929.00
2022-12-15T17:55:54.491Z,99935.75
2022-12-15T17:58:57.367Z,99937.00
2022-12-15T18:02:00.434Z,99949.47
2022-12-15T18:05:03.405Z,99944.38
2022-12-15T18:08:17.066Z,99951.91
2022-12-15T18:11:20.168Z,99932.97
2022-12-15T18:14:23.049Z,99946.28
2022-12-15T18:17:26.051Z,99941.97
2022-12-15T18:20:29.398Z,99936.12
2022-12-15T18:23:35.144Z,99927.84
2022-12-15T18:26:38.186Z,99918.47
2022-12-15T18:29:41.059Z,99913.59
2022-12-15T18:32:44.947Z,99912.56
2022-12-15T18:35:51.222Z,99907.38
2022-12-15T18:38:54.124Z,99911.09
2022-12-15T18:41:57.943Z,99904.03
2022-12-15T18:45:02.370Z,99890.81
2022-12-15T18:48:32.650Z,99902.87
2022-12-15T18:51:35.738Z,99908.56
2022-12-15T18:54:38.799Z,99910.13
2022-12-15T18:57:41.762Z,99908.19
2022-12-15T19:00:45.149Z,99908.31
2022-12-15T19:03:48.068Z,99901.34
2022-12-15T19:06:50.957Z,99903.91
2022-12-15T19:09:53.884Z,99906.75
2022-12-15T19:12:58.818Z,99906.69
2022-12-15T19:16:03.919Z,99895.63
2022-12-15T19:19:30.394Z,99893.94
2022-12-15T19:22:33.204Z,99883.91
2022-12-15T19:25:40.493Z,99885.44
2022-12-15T19:28:43.273Z,99875.72
2022-12-15T19:31:47.014Z,99880.69
2022-12-15T19:34:50.373Z,99873.56
2022-12-15T19:37:56.934Z,99874.06
2022-12-15T19:41:01.086Z,99878.41
2022-12-15T19:44:14.086Z,99870.00
2022-12-15T19:47:16.889Z,99850.09
2022-12-15T19:50:29.025Z,99852.09
2022-12-15T19:53:32.518Z,99865.50
2022-12-15T19:56:36.630Z,99853.19
2022-12-15T19:59:39.874Z,99846.31
2022-12-15T20:02:44.629Z,99851.63
2022-12-15T20:05:51.730Z,99833.09
2022-12-15T20:08:56.253Z,99843.25
2022-12-15T20:11:59.588Z,99838.63
2022-12-15T20:15:15.654Z,99845.34
2022-12-15T20:18:19.260Z,99825.81
2022-12-15T20:21:24.241Z,99807.88
2022-12-15T20:24:28.165Z,99823.50
2022-12-15T20:27:31.034Z,99822.03
2022-12-15T20:30:35.693Z,99814.16
2022-12-15T20:33:38.463Z,99797.31
2022-12-15T20:36:42.588Z,99788.75
2022-12-15T20:39:45.437Z,99767.94
2022-12-15T20:42:49.325Z,99773.91
2022-12-15T20:46:02.205Z,99767.91
2022-12-15T20:49:13.223Z,99778.97
2022-12-15T20:52:22.927Z,99773.47
2022-12-15T20:55:26.399Z,99759.25
2022-12-15T20:58:33.128Z,99758.94
2022-12-15T21:01:38.218Z,99763.19
2022-12-15T21:04:41.205Z,99750.91
2022-12-15T21:07:44.854Z,99772.31
2022-12-15T21:10:47.619Z,99758.88
2022-12-15T21:13:52.392Z,99745.12
2022-12-15T21:16:55.019Z,99756.34
2022-12-15T21:19:58.045Z,99764.41
2022-12-15T21:23:00.658Z,99752.47
2022-12-15T21:26:04.063Z,99734.41
2022-12-15T21:29:12.863Z,99738.38
2022-12-15T21:32:15.880Z,99735.50
2022-12-15T21:35:19.731Z,99749.09
2022-12-15T21:38:34.172Z,99741.50
2022-12-15T21:41:42.145Z,99736.78
2022-12-15T21:44:45.501Z,99719.78
2022-12-15T21:48:07.602Z,99736.59
2022-12-15T21:51:17.663Z,99725.66
2022-12-15T21:54:28.839Z,99713.66
2022-12-15T21:57:33.670Z,99701.88
2022-12-15T22:00:39.699Z,99698.94
2022-12-15T22:03:50.845Z,99697.34
2022-12-15T22:06:54.217Z,99672.50
2022-12-15T22:09:57.092Z,99680.09
2022-12-15T22:13:00.060Z,99681.87
2022-12-15T22:16:03.149Z,99679.25
2022-12-15T22:19:12.686Z,99673.28
2022-12-15T22:22:16.692Z,99681.22
2022-12-15T22:25:24.696Z,99677.91
2022-12-15T22:28:28.705Z,99681.06
2022-12-15T22:31:31.335Z,99681.06
2022-12-15T22:34:34.264Z,99684.31
2022-12-15T22:37:36.846Z,99678.28
2022-12-15T22:40:40.131Z,99665.94
2022-12-15T22:43:44.744Z,99670.22
2022-12-15T22:46:49.249Z,99673.28
2022-12-15T22:49:53.517Z,99654.62
2022-12-15T22:52:57.559Z,99653.47
2022-12-15T22:56:03.090Z,99652.94
2022-12-15T22:59:10.658Z,99637.97
2022-12-15T23:02:13.351Z,99627.13
2022-12-15T23:05:18.875Z,99618.88
2022-12-15T23:08:21.438Z,99610.63
2022-12-15T23:11:37.416Z,99602.59
2022-12-15T23:14:58.663Z,99583.41
2022-12-15T23:18:01.587Z,99579.81
2022-12-15T23:21:04.653Z,99576.28
2022-12-15T23:24:07.963Z,99582.69
2022-12-15T23:27:11.648Z,99579.28
2022-12-15T23:30:14.762Z,99565.41
2022-12-15T23:33:18.285Z,99566.94
2022-12-15T23:36:21.210Z,99556.09
2022-12-15T23:39:24.290Z,99562.34
2022-12-15T23:42:27.518Z,99547.69
2022-12-15T23:45:30.079Z,99528.25
2022-12-15T23:48:35.961Z,99499.91
2022-12-15T23:51:38.802Z,99483.78
2022-12-15T23:54:41.693Z,99488.91
2022-12-15T23:57:44.269Z,99514.88
